Time;durP1;ratioP1;P1;durP2;ratioP2;P2;SDS_P1;SDS_P2;PMS_P1;PMS_P2;Temp;Humidity;BMP_temperature;BMP_pressure;BME280_temperature;BME280_humidity;BME280_pressure;Samples;Min_cycle;Max_cycle;Signal;HPM_P1;HPM_P2
2022/11/08 00:01:34;;;;;;;33.75;17.48;;;;;;;;;;4992224;28;20027;-71
2022/11/08 00:04:02;;;;;;;29.50;16.52;;;;;;;;;;4991825;28;20085;-71
2022/11/08 00:14:45;;;;;;;29.63;16.52;;;;;;;;;;4988226;28;20524;-72
2022/11/08 00:17:15;;;;;;;25.67;15.85;;;;;;;;;;4985305;28;20030;-71
2022/11/08 00:19:42;;;;;;;31.42;18.70;;;;;;;;;;4991066;28;20046;-71
2022/11/08 00:22:09;;;;;;;33.83;20.95;;;;;;;;;;4991800;28;20026;-71
2022/11/08 00:24:35;;;;;;;27.38;17.58;;;;;;;;;;4991604;28;20440;-71
2022/11/08 00:27:07;;;;;;;28.70;17.23;;;;;;;;;;4991822;28;20026;-71
2022/11/08 00:29:37;;;;;;;29.75;17.50;;;;;;;;;;4976702;28;20033;-71
2022/11/08 00:32:05;;;;;;;26.70;16.52;;;;;;;;;;4989264;28;20050;-71
2022/11/08 00:34:34;;;;;;;50.03;19.20;;;;;;;;;;4988277;28;20500;-72
2022/11/08 00:37:00;;;;;;;37.60;18.27;;;;;;;;;;4990561;28;20443;-71
2022/11/08 00:39:26;;;;;;;34.75;19.65;;;;;;;;;;4991531;28;20479;-72
2022/11/08 00:41:52;;;;;;;27.55;18.48;;;;;;;;;;4993927;28;20129;-71
2022/11/08 00:44:18;;;;;;;37.63;19.42;;;;;;;;;;4991222;28;20494;-71
2022/11/08 00:46:44;;;;;;;29.63;18.60;;;;;;;;;;4991974;28;20042;-71
2022/11/08 00:49:10;;;;;;;34.80;18.27;;;;;;;;;;4991862;28;20018;-71
2022/11/08 00:51:36;;;;;;;29.52;16.25;;;;;;;;;;4992118;28;20076;-72
2022/11/08 00:54:04;;;;;;;33.33;16.88;;;;;;;;;;4991470;28;20027;-71
2022/11/08 00:56:30;;;;;;;30.23;17.55;;;;;;;;;;4991399;28;20400;-71
2022/11/08 00:58:57;;;;;;;25.40;16.48;;;;;;;;;;4986721;28;20034;-71
2022/11/08 01:01:23;;;;;;;30.98;16.42;;;;;;;;;;4991375;28;20151;-72
2022/11/08 01:03:49;;;;;;;26.67;16.35;;;;;;;;;;4991830;28;20025;-71
2022/11/08 01:06:18;;;;;;;26.88;16.17;;;;;;;;;;4992569;28;20034;-72
2022/11/08 01:08:44;;;;;;;27.70;16.05;;;;;;;;;;4976825;28;20014;-71
2022/11/08 01:11:13;;;;;;;25.38;16.92;;;;;;;;;;4975172;28;20031;-72
2022/11/08 01:13:39;;;;;;;29.70;17.48;;;;;;;;;;4990677;28;20031;-71
2022/11/08 01:16:07;;;;;;;33.58;16.58;;;;;;;;;;4991686;28;20110;-71
2022/11/08 01:18:33;;;;;;;31.05;17.02;;;;;;;;;;4988650;28;20069;-71
2022/11/08 01:21:01;;;;;;;29.90;17.33;;;;;;;;;;4991314;28;20042;-71
2022/11/08 01:23:26;;;;;;;29.30;16.08;;;;;;;;;;4991641;28;20112;-70
2022/11/08 01:29:52;;;;;;;24.65;15.63;;;;;;;;;;4937624;28;20051;-70
2022/11/08 01:32:18;;;;;;;29.05;15.90;;;;;;;;;;4943676;29;20039;-71
2022/11/08 01:34:44;;;;;;;26.70;17.52;;;;;;;;;;4976421;28;20042;-71
2022/11/08 01:37:09;;;;;;;23.65;15.63;;;;;;;;;;4995221;28;20034;-71
2022/11/08 01:39:35;;;;;;;23.52;15.75;;;;;;;;;;4993998;28;20030;-71
2022/11/08 01:42:01;;;;;;;26.35;16.02;;;;;;;;;;4995176;28;20049;-71
2022/11/08 01:44:27;;;;;;;25.10;15.52;;;;;;;;;;4995042;28;20022;-70
2022/11/08 01:46:53;;;;;;;21.65;15.45;;;;;;;;;;4995204;28;20155;-70
2022/11/08 01:49:28;;;;;;;22.70;15.95;;;;;;;;;;4995280;28;20069;-71
2022/11/08 01:52:23;;;;;;;28.10;16.85;;;;;;;;;;4995576;28;20109;-70
2022/11/08 01:55:07;;;;;;;24.63;16.13;;;;;;;;;;4986425;28;20098;-71
2022/11/08 01:57:42;;;;;;;27.90;16.63;;;;;;;;;;4998866;28;20084;-71
2022/11/08 02:00:11;;;;;;;27.80;17.80;;;;;;;;;;4994718;28;20108;-71
2022/11/08 02:02:39;;;;;;;28.92;17.45;;;;;;;;;;4994761;28;20022;-70
2022/11/08 02:05:23;;;;;;;25.10;16.05;;;;;;;;;;4994512;28;20088;-71
2022/11/08 02:08:03;;;;;;;26.77;17.77;;;;;;;;;;4994557;28;20030;-71
2022/11/08 02:10:35;;;;;;;28.45;17.02;;;;;;;;;;4994005;28;20034;-70
2022/11/08 02:13:02;;;;;;;24.75;17.90;;;;;;;;;;4997640;28;20034;-70
2022/11/08 02:15:28;;;;;;;28.13;18.63;;;;;;;;;;4992592;28;20392;-71
2022/11/08 02:17:54;;;;;;;28.10;18.92;;;;;;;;;;4993834;28;20030;-71
2022/11/08 02:20:21;;;;;;;28.35;19.30;;;;;;;;;;4994597;28;20503;-71
2022/11/08 02:23:13;;;;;;;28.23;18.42;;;;;;;;;;4994545;28;20038;-71
2022/11/08 02:25:39;;;;;;;35.92;22.05;;;;;;;;;;4974631;28;20499;-71
2022/11/08 02:28:05;;;;;;;34.60;20.42;;;;;;;;;;4988551;28;20018;-71
2022/11/08 02:30:33;;;;;;;33.13;21.10;;;;;;;;;;4993956;28;20038;-71
2022/11/08 02:32:58;;;;;;;32.67;20.63;;;;;;;;;;4993528;28;20030;-70
2022/11/08 02:35:26;;;;;;;31.75;21.67;;;;;;;;;;4992126;28;20494;-71
2022/11/08 02:37:52;;;;;;;50.72;27.85;;;;;;;;;;4994029;28;20113;-71
2022/11/08 02:40:19;;;;;;;40.85;26.23;;;;;;;;;;4994477;28;20041;-70
2022/11/08 02:42:45;;;;;;;39.83;27.13;;;;;;;;;;4993406;28;20428;-72
2022/11/08 02:45:11;;;;;;;37.92;25.73;;;;;;;;;;4988942;28;20030;-71
2022/11/08 02:47:36;;;;;;;45.30;27.92;;;;;;;;;;4993584;28;20050;-71
2022/11/08 02:50:03;;;;;;;48.40;26.10;;;;;;;;;;4993763;28;20140;-71
2022/11/08 02:52:28;;;;;;;46.90;30.88;;;;;;;;;;4992678;28;20439;-71
2022/11/08 02:54:54;;;;;;;45.28;28.88;;;;;;;;;;4993084;28;20034;-71
2022/11/08 02:57:20;;;;;;;40.97;27.05;;;;;;;;;;4984147;28;20034;-70
2022/11/08 02:59:47;;;;;;;36.15;24.55;;;;;;;;;;4976291;28;20081;-71
2022/11/08 03:02:13;;;;;;;40.63;25.88;;;;;;;;;;4979940;28;20049;-71
2022/11/08 03:04:39;;;;;;;39.97;25.08;;;;;;;;;;4973382;28;20031;-71
2022/11/08 03:07:05;;;;;;;42.97;26.10;;;;;;;;;;4972275;28;20031;-71
2022/11/08 03:09:31;;;;;;;36.45;25.10;;;;;;;;;;4972216;28;20515;-71
2022/11/08 03:11:57;;;;;;;43.00;23.95;;;;;;;;;;4974079;28;20363;-71
2022/11/08 03:14:23;;;;;;;42.65;25.83;;;;;;;;;;4971184;28;20463;-71
2022/11/08 03:16:50;;;;;;;43.33;26.10;;;;;;;;;;4973734;28;20054;-71
2022/11/08 03:19:16;;;;;;;39.92;25.05;;;;;;;;;;4973640;28;20122;-71
2022/11/08 03:21:42;;;;;;;33.58;20.92;;;;;;;;;;4973376;28;20193;-70
2022/11/08 03:24:09;;;;;;;36.47;20.83;;;;;;;;;;4973760;28;20034;-70
2022/11/08 03:26:35;;;;;;;35.40;20.55;;;;;;;;;;4973534;28;20031;-71
2022/11/08 03:29:01;;;;;;;30.13;18.15;;;;;;;;;;4985362;28;20038;-71
2022/11/08 03:31:27;;;;;;;32.05;18.33;;;;;;;;;;4991659;28;20033;-71
2022/11/08 03:33:53;;;;;;;29.60;18.20;;;;;;;;;;4990821;28;20142;-71
2022/11/08 03:36:18;;;;;;;32.78;19.05;;;;;;;;;;4986991;28;20377;-70
2022/11/08 03:38:44;;;;;;;31.80;18.52;;;;;;;;;;4972155;28;20500;-71
2022/11/08 03:41:10;;;;;;;29.35;18.75;;;;;;;;;;4973556;28;20030;-71
2022/11/08 03:43:36;;;;;;;27.63;19.25;;;;;;;;;;4973654;28;20113;-70
2022/11/08 03:46:02;;;;;;;32.30;19.15;;;;;;;;;;4973269;28;20022;-71
2022/11/08 03:48:28;;;;;;;29.80;18.60;;;;;;;;;;4973431;28;20042;-70
2022/11/08 03:50:53;;;;;;;26.70;18.77;;;;;;;;;;4973653;28;20055;-71
2022/11/08 03:53:19;;;;;;;32.67;20.30;;;;;;;;;;4973329;28;20043;-70
2022/11/08 03:55:45;;;;;;;32.97;21.60;;;;;;;;;;4973995;28;20106;-71
2022/11/08 03:58:11;;;;;;;27.85;19.92;;;;;;;;;;4974066;28;20031;-71
2022/11/08 04:00:37;;;;;;;31.85;17.83;;;;;;;;;;4973176;28;20479;-70
2022/11/08 04:03:03;;;;;;;31.00;19.60;;;;;;;;;;4973008;28;20035;-71
2022/11/08 04:05:31;;;;;;;28.75;19.27;;;;;;;;;;4970009;28;20085;-71
2022/11/08 04:07:58;;;;;;;29.25;18.77;;;;;;;;;;4972723;28;20039;-71
2022/11/08 04:10:23;;;;;;;28.77;19.13;;;;;;;;;;4972674;28;20441;-70
2022/11/08 04:15:36;;;;;;;28.23;18.05;;;;;;;;;;4961797;28;20049;-70
2022/11/08 04:23:34;;;;;;;28.65;18.58;;;;;;;;;;4972870;28;20045;-70
2022/11/08 04:26:02;;;;;;;34.25;17.92;;;;;;;;;;4972820;28;20045;-71
2022/11/08 04:28:30;;;;;;;26.60;17.85;;;;;;;;;;4973019;28;20069;-72
2022/11/08 04:30:58;;;;;;;28.55;19.17;;;;;;;;;;4973185;28;20444;-71
2022/11/08 04:33:25;;;;;;;30.98;19.17;;;;;;;;;;4973157;28;20559;-71
2022/11/08 04:35:52;;;;;;;29.10;19.02;;;;;;;;;;4973132;28;20033;-70
2022/11/08 04:38:18;;;;;;;32.72;18.33;;;;;;;;;;4972770;28;20043;-70
2022/11/08 04:40:44;;;;;;;33.85;20.05;;;;;;;;;;4972674;28;20034;-70
2022/11/08 04:43:11;;;;;;;33.90;19.98;;;;;;;;;;4972777;28;20034;-71
2022/11/08 04:45:37;;;;;;;57.63;23.88;;;;;;;;;;4973046;28;20592;-71
2022/11/08 04:48:03;;;;;;;39.50;19.73;;;;;;;;;;4972676;28;20042;-72
2022/11/08 04:50:29;;;;;;;35.05;21.15;;;;;;;;;;4972056;28;20034;-70
2022/11/08 04:52:55;;;;;;;35.08;20.65;;;;;;;;;;4972827;28;20050;-70
2022/11/08 04:55:22;;;;;;;32.40;20.73;;;;;;;;;;4972524;28;20030;-70
2022/11/08 04:57:49;;;;;;;38.72;21.13;;;;;;;;;;4972470;28;20039;-70
2022/11/08 05:00:15;;;;;;;38.50;22.10;;;;;;;;;;4971614;28;20027;-70
2022/11/08 05:02:42;;;;;;;36.13;21.88;;;;;;;;;;4970140;28;20038;-70
2022/11/08 05:05:08;;;;;;;39.85;23.90;;;;;;;;;;4974356;28;20026;-70
2022/11/08 05:07:34;;;;;;;48.10;23.77;;;;;;;;;;4976283;28;20472;-70
2022/11/08 05:10:00;;;;;;;37.17;22.38;;;;;;;;;;4976566;28;20019;-71
2022/11/08 05:12:26;;;;;;;37.90;22.38;;;;;;;;;;4976266;28;20039;-71
2022/11/08 05:14:52;;;;;;;39.38;22.27;;;;;;;;;;4976067;28;20034;-70
2022/11/08 05:17:18;;;;;;;47.78;23.33;;;;;;;;;;4972397;28;20038;-71
2022/11/08 05:25:13;;;;;;;34.10;20.80;;;;;;;;;;4971800;28;20022;-71
2022/11/08 05:27:38;;;;;;;48.10;22.77;;;;;;;;;;4971585;28;20085;-71
2022/11/08 05:30:05;;;;;;;49.22;22.52;;;;;;;;;;4975439;28;20031;-72
2022/11/08 05:32:31;;;;;;;40.05;20.77;;;;;;;;;;4982866;28;20035;-72
2022/11/08 05:34:57;;;;;;;43.78;20.60;;;;;;;;;;4972395;28;20390;-72
2022/11/08 05:37:22;;;;;;;45.47;21.40;;;;;;;;;;4974872;28;20033;-72
2022/11/08 05:39:48;;;;;;;44.17;20.73;;;;;;;;;;4973716;28;20066;-73
2022/11/08 05:42:14;;;;;;;43.67;20.55;;;;;;;;;;4968441;28;20034;-73
2022/11/08 05:44:40;;;;;;;52.00;20.35;;;;;;;;;;4973851;28;20031;-72
2022/11/08 05:47:06;;;;;;;40.83;19.00;;;;;;;;;;4974363;28;20015;-72
2022/11/08 05:49:32;;;;;;;33.60;19.02;;;;;;;;;;4973828;28;20035;-72
2022/11/08 05:51:57;;;;;;;27.55;18.42;;;;;;;;;;4974746;28;20030;-72
2022/11/08 05:54:23;;;;;;;26.20;15.63;;;;;;;;;;4975904;28;20037;-73
2022/11/08 05:56:49;;;;;;;28.30;16.60;;;;;;;;;;4975167;28;20109;-72
2022/11/08 05:59:15;;;;;;;25.25;16.65;;;;;;;;;;4974863;28;20074;-73
2022/11/08 06:01:41;;;;;;;27.83;17.02;;;;;;;;;;4975659;28;20073;-73
2022/11/08 06:04:07;;;;;;;30.65;16.88;;;;;;;;;;4974820;28;20041;-72
2022/11/08 06:06:33;;;;;;;28.40;16.23;;;;;;;;;;4966321;28;20019;-72
2022/11/08 06:08:59;;;;;;;30.95;18.73;;;;;;;;;;4975338;28;20053;-72
2022/11/08 06:11:26;;;;;;;33.78;20.83;;;;;;;;;;4975907;28;20019;-72
2022/11/08 06:13:53;;;;;;;34.83;20.98;;;;;;;;;;4975570;28;20026;-71
2022/11/08 06:16:20;;;;;;;35.03;20.45;;;;;;;;;;4974854;28;20082;-72
2022/11/08 06:18:47;;;;;;;36.20;20.98;;;;;;;;;;4972040;28;20051;-72
2022/11/08 06:21:15;;;;;;;32.65;19.60;;;;;;;;;;4975660;28;20489;-72
2022/11/08 06:23:41;;;;;;;35.17;20.20;;;;;;;;;;4973506;28;20030;-71
2022/11/08 06:26:08;;;;;;;30.75;17.33;;;;;;;;;;4975156;28;20019;-72
2022/11/08 06:28:34;;;;;;;27.05;17.77;;;;;;;;;;4975816;28;20518;-72
2022/11/08 06:31:02;;;;;;;25.83;16.20;;;;;;;;;;4975628;28;20523;-72
2022/11/08 06:33:28;;;;;;;24.98;15.30;;;;;;;;;;4975642;28;20039;-72
2022/11/08 06:35:56;;;;;;;26.23;16.17;;;;;;;;;;4974788;28;20027;-72
2022/11/08 06:38:22;;;;;;;23.40;13.75;;;;;;;;;;4975324;28;20027;-73
2022/11/08 06:40:48;;;;;;;23.83;15.10;;;;;;;;;;4975244;28;20031;-72
2022/11/08 06:43:14;;;;;;;26.80;16.23;;;;;;;;;;4975111;28;20049;-72
2022/11/08 06:45:40;;;;;;;26.45;16.67;;;;;;;;;;4975297;28;20025;-72
2022/11/08 06:48:07;;;;;;;25.05;17.52;;;;;;;;;;4974686;28;20035;-72
2022/11/08 06:50:34;;;;;;;31.63;17.98;;;;;;;;;;4974566;28;20185;-72
2022/11/08 06:53:02;;;;;;;22.65;16.38;;;;;;;;;;4974880;28;20108;-72
2022/11/08 06:55:29;;;;;;;30.00;16.95;;;;;;;;;;4973901;28;20023;-72
2022/11/08 06:57:56;;;;;;;30.05;17.17;;;;;;;;;;4974852;28;20058;-72
2022/11/08 07:00:22;;;;;;;28.77;18.33;;;;;;;;;;4958010;28;20081;-71
2022/11/08 07:02:58;;;;;;;28.45;16.25;;;;;;;;;;4974875;28;20503;-73
2022/11/08 07:05:26;;;;;;;22.48;16.80;;;;;;;;;;4974498;28;20106;-72
2022/11/08 07:07:52;;;;;;;32.53;17.77;;;;;;;;;;4974504;28;20054;-71
2022/11/08 07:10:19;;;;;;;29.83;17.02;;;;;;;;;;4974895;28;20042;-73
2022/11/08 07:12:45;;;;;;;30.77;18.50;;;;;;;;;;4955622;28;20400;-72
2022/11/08 07:15:12;;;;;;;28.30;18.70;;;;;;;;;;4973714;28;20114;-72
2022/11/08 07:17:38;;;;;;;27.13;16.90;;;;;;;;;;4974138;28;20121;-71
2022/11/08 07:20:05;;;;;;;28.20;16.95;;;;;;;;;;4973127;28;20572;-72
2022/11/08 07:22:30;;;;;;;28.50;16.35;;;;;;;;;;4956473;28;20074;-73
2022/11/08 07:24:56;;;;;;;23.85;17.45;;;;;;;;;;4973854;28;20061;-72
2022/11/08 07:27:22;;;;;;;29.83;18.10;;;;;;;;;;4973763;28;20034;-72
2022/11/08 07:29:48;;;;;;;26.02;17.60;;;;;;;;;;4974204;28;20043;-71
2022/11/08 07:32:14;;;;;;;29.65;18.33;;;;;;;;;;4956070;28;20054;-72
2022/11/08 07:34:40;;;;;;;33.03;16.35;;;;;;;;;;4974133;28;20042;-71
2022/11/08 07:37:06;;;;;;;27.48;16.85;;;;;;;;;;4973891;28;20027;-70
2022/11/08 07:39:32;;;;;;;24.30;15.88;;;;;;;;;;4973765;28;20405;-71
2022/11/08 07:41:58;;;;;;;25.02;17.02;;;;;;;;;;4973655;28;20034;-72
2022/11/08 07:44:27;;;;;;;31.85;17.42;;;;;;;;;;4975078;28;20031;-71
2022/11/08 07:46:54;;;;;;;26.85;16.48;;;;;;;;;;4968845;28;20026;-72
2022/11/08 07:49:20;;;;;;;26.33;17.15;;;;;;;;;;4962969;28;20121;-74
2022/11/08 07:51:46;;;;;;;30.65;16.60;;;;;;;;;;4973657;28;20107;-73
2022/11/08 07:54:12;;;;;;;22.45;15.38;;;;;;;;;;4960960;28;20110;-74
2022/11/08 07:56:37;;;;;;;21.55;16.42;;;;;;;;;;4959963;28;20531;-76
2022/11/08 07:59:03;;;;;;;22.55;15.80;;;;;;;;;;4973888;28;20030;-74
2022/11/08 08:01:30;;;;;;;31.83;20.00;;;;;;;;;;4956276;28;20034;-74
2022/11/08 08:03:56;;;;;;;28.52;18.13;;;;;;;;;;4973502;28;20466;-74
2022/11/08 08:06:23;;;;;;;33.38;16.67;;;;;;;;;;4972893;28;20027;-73
2022/11/08 08:08:49;;;;;;;33.05;18.40;;;;;;;;;;4972195;28;20477;-74
2022/11/08 08:11:15;;;;;;;31.77;17.38;;;;;;;;;;4972519;28;20037;-72
2022/11/08 08:13:41;;;;;;;30.88;18.35;;;;;;;;;;4973226;28;20039;-74
2022/11/08 08:16:08;;;;;;;25.95;18.08;;;;;;;;;;4973436;28;20473;-74
2022/11/08 08:18:35;;;;;;;28.65;19.08;;;;;;;;;;4971094;28;20047;-75
2022/11/08 08:21:00;;;;;;;25.73;18.55;;;;;;;;;;4972392;28;20497;-76
2022/11/08 08:23:27;;;;;;;26.95;18.38;;;;;;;;;;4972459;28;20051;-75
2022/11/08 08:25:53;;;;;;;30.20;19.15;;;;;;;;;;4955933;28;20031;-74
2022/11/08 08:28:19;;;;;;;34.05;19.95;;;;;;;;;;4955922;28;20062;-73
2022/11/08 08:30:45;;;;;;;32.83;20.58;;;;;;;;;;4973773;28;20030;-74
2022/11/08 08:33:14;;;;;;;37.65;20.63;;;;;;;;;;4973230;28;20291;-75
2022/11/08 08:35:42;;;;;;;48.17;21.48;;;;;;;;;;4972820;28;20508;-74
2022/11/08 08:38:09;;;;;;;31.45;19.08;;;;;;;;;;4973246;28;20496;-74
2022/11/08 08:40:35;;;;;;;28.63;18.63;;;;;;;;;;4972221;28;20117;-74
2022/11/08 08:43:03;;;;;;;28.20;19.83;;;;;;;;;;4972921;28;20058;-74
2022/11/08 08:45:30;;;;;;;26.77;17.15;;;;;;;;;;4972125;28;20019;-74
2022/11/08 08:47:57;;;;;;;26.85;17.73;;;;;;;;;;4955303;28;20042;-74
2022/11/08 08:50:27;;;;;;;28.70;17.83;;;;;;;;;;4972951;28;20109;-74
2022/11/08 08:53:03;;;;;;;31.80;20.15;;;;;;;;;;4970433;28;20034;-75
2022/11/08 08:55:34;;;;;;;28.13;19.90;;;;;;;;;;4972067;28;20031;-74
2022/11/08 08:58:00;;;;;;;26.92;19.15;;;;;;;;;;4970985;28;20046;-74
2022/11/08 09:00:26;;;;;;;26.73;20.30;;;;;;;;;;4971359;28;20050;-75
2022/11/08 09:02:51;;;;;;;27.55;19.58;;;;;;;;;;4971485;28;20027;-75
2022/11/08 09:05:18;;;;;;;32.70;21.00;;;;;;;;;;4971584;28;20065;-75
2022/11/08 09:07:43;;;;;;;34.00;21.23;;;;;;;;;;4971299;28;20046;-75
2022/11/08 09:10:10;;;;;;;30.60;21.98;;;;;;;;;;4971394;28;20393;-74
2022/11/08 09:12:37;;;;;;;35.33;19.90;;;;;;;;;;4954589;28;20030;-74
2022/11/08 09:15:04;;;;;;;30.98;21.55;;;;;;;;;;4972011;28;20049;-72
2022/11/08 09:17:30;;;;;;;34.35;21.70;;;;;;;;;;4951433;28;20519;-74
2022/11/08 09:19:56;;;;;;;34.80;20.63;;;;;;;;;;4970605;28;20082;-75
2022/11/08 09:22:22;;;;;;;31.23;21.05;;;;;;;;;;4971943;28;20113;-72
2022/11/08 09:24:48;;;;;;;27.88;19.42;;;;;;;;;;4970668;28;20042;-73
2022/11/08 09:27:13;;;;;;;32.03;20.90;;;;;;;;;;4970543;28;20031;-73
2022/11/08 09:29:39;;;;;;;29.25;21.10;;;;;;;;;;4985887;28;20034;-72
2022/11/08 09:32:05;;;;;;;34.83;21.63;;;;;;;;;;4985772;28;20093;-73
2022/11/08 09:34:31;;;;;;;30.55;21.08;;;;;;;;;;4971894;28;20038;-74
2022/11/08 09:36:58;;;;;;;36.45;22.08;;;;;;;;;;4971743;28;20022;-74
2022/11/08 09:39:23;;;;;;;32.70;22.63;;;;;;;;;;4970835;28;20045;-74
2022/11/08 09:42:21;;;;;;;29.25;20.98;;;;;;;;;;4938244;28;20114;-74
2022/11/08 09:45:03;;;;;;;36.95;23.35;;;;;;;;;;4982192;28;20468;-73
2022/11/08 09:47:40;;;;;;;43.92;22.90;;;;;;;;;;4969538;28;20086;-72
2022/11/08 09:50:20;;;;;;;31.92;23.17;;;;;;;;;;4969441;28;20049;-75
2022/11/08 09:52:59;;;;;;;34.63;24.77;;;;;;;;;;4973088;28;20496;-74
2022/11/08 09:55:35;;;;;;;36.95;24.05;;;;;;;;;;4972888;28;20034;-73
2022/11/08 09:58:27;;;;;;;42.03;24.38;;;;;;;;;;4974015;28;20045;-75
2022/11/08 10:00:53;;;;;;;33.33;21.95;;;;;;;;;;4973926;28;20030;-74
2022/11/08 10:03:25;;;;;;;36.65;24.02;;;;;;;;;;4975123;28;20479;-74
2022/11/08 10:06:03;;;;;;;33.60;22.67;;;;;;;;;;4973972;28;20511;-74
2022/11/08 10:08:35;;;;;;;36.70;23.65;;;;;;;;;;4974465;28;20050;-74
2022/11/08 10:11:21;;;;;;;42.15;26.65;;;;;;;;;;4973537;28;20059;-74
2022/11/08 10:14:14;;;;;;;38.17;23.67;;;;;;;;;;4974694;28;20114;-74
2022/11/08 10:16:55;;;;;;;42.57;25.63;;;;;;;;;;4974368;28;20042;-74
2022/11/08 10:19:39;;;;;;;36.08;24.40;;;;;;;;;;4973579;28;20047;-73
2022/11/08 10:22:16;;;;;;;34.42;23.88;;;;;;;;;;4974504;28;20038;-73
2022/11/08 10:25:04;;;;;;;35.38;24.52;;;;;;;;;;4974247;28;20031;-75
2022/11/08 10:27:36;;;;;;;33.67;22.48;;;;;;;;;;4946815;28;20089;-74
2022/11/08 10:30:18;;;;;;;34.58;22.50;;;;;;;;;;4973982;28;20043;-74
2022/11/08 10:32:49;;;;;;;36.65;23.88;;;;;;;;;;4974595;28;20043;-74
2022/11/08 10:35:36;;;;;;;37.22;23.52;;;;;;;;;;4974172;28;20066;-73
2022/11/08 10:38:23;;;;;;;31.90;22.63;;;;;;;;;;4973487;28;20031;-73
2022/11/08 10:41:25;;;;;;;35.22;24.17;;;;;;;;;;4971502;28;20035;-73
2022/11/08 10:44:12;;;;;;;33.90;23.42;;;;;;;;;;4977592;28;20038;-74
2022/11/08 10:46:41;;;;;;;38.17;24.02;;;;;;;;;;4978978;28;20038;-74
2022/11/08 10:49:17;;;;;;;34.10;22.98;;;;;;;;;;4972334;28;20121;-74
2022/11/08 10:51:44;;;;;;;39.03;22.67;;;;;;;;;;4972927;28;20046;-73
2022/11/08 10:54:38;;;;;;;36.67;24.23;;;;;;;;;;4972817;28;20023;-74
2022/11/08 10:57:04;;;;;;;35.70;23.23;;;;;;;;;;4973470;28;20062;-72
2022/11/08 10:59:31;;;;;;;32.15;22.63;;;;;;;;;;4974493;28;20436;-73
2022/11/08 11:01:58;;;;;;;30.48;22.35;;;;;;;;;;4971123;28;20035;-73
2022/11/08 11:04:27;;;;;;;36.30;22.98;;;;;;;;;;4972496;28;20080;-74
2022/11/08 11:06:53;;;;;;;34.25;23.60;;;;;;;;;;4967736;28;20054;-73
2022/11/08 11:09:26;;;;;;;41.65;23.10;;;;;;;;;;4973280;28;20506;-72
2022/11/08 11:11:58;;;;;;;31.52;21.67;;;;;;;;;;4973315;28;20518;-73
2022/11/08 11:14:24;;;;;;;35.58;21.27;;;;;;;;;;4970061;28;20046;-72
2022/11/08 11:17:02;;;;;;;31.75;20.90;;;;;;;;;;4968896;28;20400;-74
2022/11/08 11:19:29;;;;;;;34.75;23.38;;;;;;;;;;4972588;28;20053;-74
2022/11/08 11:22:06;;;;;;;42.95;23.67;;;;;;;;;;4970108;28;20042;-75
2022/11/08 11:24:45;;;;;;;31.15;20.88;;;;;;;;;;4978893;28;20124;-72
2022/11/08 11:27:37;;;;;;;39.38;24.23;;;;;;;;;;4990702;28;20046;-73
2022/11/08 11:30:19;;;;;;;36.00;21.73;;;;;;;;;;4981455;28;20043;-75
2022/11/08 11:32:59;;;;;;;34.87;22.17;;;;;;;;;;4959348;28;20100;-74
2022/11/08 11:35:33;;;;;;;33.90;22.00;;;;;;;;;;4984446;28;20112;-73
2022/11/08 11:38:00;;;;;;;;;;;;;;;;;;4995101;28;20388;-75
2022/11/08 11:40:55;;;;;;;29.95;20.67;;;;;;;;;;4996370;28;20368;-72
2022/11/08 11:43:30;;;;;;;27.77;18.77;;;;;;;;;;4987397;28;20046;-73
2022/11/08 11:46:20;;;;;;;30.33;19.95;;;;;;;;;;4991060;28;20030;-74
2022/11/08 11:48:52;;;;;;;27.25;19.08;;;;;;;;;;4973646;28;20060;-74
2022/11/08 11:51:18;;;;;;;30.42;18.25;;;;;;;;;;4991598;28;20037;-74
2022/11/08 11:53:45;;;;;;;32.92;19.02;;;;;;;;;;4991980;28;20112;-76
2022/11/08 11:56:31;;;;;;;29.08;18.65;;;;;;;;;;4991794;28;20559;-75
2022/11/08 11:59:22;;;;;;;28.70;16.85;;;;;;;;;;4991840;28;20500;-74
2022/11/08 12:02:05;;;;;;;25.20;17.00;;;;;;;;;;4991473;28;20030;-74
2022/11/08 12:04:54;;;;;;;27.02;17.50;;;;;;;;;;4991859;28;20109;-75
2022/11/08 12:07:28;;;;;;;25.40;16.85;;;;;;;;;;4990557;28;20483;-74
2022/11/08 12:10:17;;;;;;;24.35;16.48;;;;;;;;;;4992157;28;20558;-77
2022/11/08 12:13:01;;;;;;;26.77;16.95;;;;;;;;;;4991772;28;20101;-75
2022/11/08 12:15:40;;;;;;;30.73;17.17;;;;;;;;;;4986036;28;20524;-75
2022/11/08 12:18:41;;;;;;;27.23;16.77;;;;;;;;;;4990662;28;20026;-76
2022/11/08 12:21:35;;;;;;;27.40;16.38;;;;;;;;;;4912012;29;20060;-75
2022/11/08 12:24:36;;;;;;;25.13;16.20;;;;;;;;;;4988556;28;20042;-75
2022/11/08 12:27:32;;;;;;;33.63;17.17;;;;;;;;;;4951939;28;20046;-75
2022/11/08 12:30:12;;;;;;;25.58;16.05;;;;;;;;;;4991649;28;20034;-75
2022/11/08 12:33:08;;;;;;;26.48;15.02;;;;;;;;;;4990553;28;20037;-74
2022/11/08 12:35:54;;;;;;;22.30;15.38;;;;;;;;;;4968980;28;20043;-75
2022/11/08 12:38:47;;;;;;;24.27;15.57;;;;;;;;;;4971455;28;20046;-73
2022/11/08 12:41:29;;;;;;;38.03;24.58;;;;;;;;;;4985830;28;20384;-73
2022/11/08 12:44:22;;;;;;;28.35;16.55;;;;;;;;;;4990735;28;20038;-73
2022/11/08 12:47:08;;;;;;;33.78;17.00;;;;;;;;;;4988451;28;20492;-73
2022/11/08 12:50:29;;;;;;;31.48;17.23;;;;;;;;;;4986106;28;20054;-76
2022/11/08 12:53:18;;;;;;;23.65;14.95;;;;;;;;;;4929772;28;20106;-74
2022/11/08 12:55:47;;;;;;;21.05;13.23;;;;;;;;;;4985439;28;20087;-73
2022/11/08 12:58:38;;;;;;;22.27;13.47;;;;;;;;;;4986614;28;20048;-75
2022/11/08 13:01:11;;;;;;;21.38;12.77;;;;;;;;;;4989309;28;20030;-73
2022/11/08 13:03:45;;;;;;;23.27;13.57;;;;;;;;;;4990245;28;20478;-73
2022/11/08 13:06:21;;;;;;;20.92;13.65;;;;;;;;;;4990221;28;20392;-73
2022/11/08 13:09:22;;;;;;;22.63;13.43;;;;;;;;;;4972533;28;20056;-73
2022/11/08 13:11:57;;;;;;;26.38;13.80;;;;;;;;;;4913383;29;20503;-72
2022/11/08 13:14:24;;;;;;;23.38;13.63;;;;;;;;;;4977862;28;20574;-73
2022/11/08 13:17:21;;;;;;;20.40;12.23;;;;;;;;;;4971486;28;20033;-74
2022/11/08 13:19:48;;;;;;;19.65;12.88;;;;;;;;;;4980725;28;20046;-74
2022/11/08 13:22:40;;;;;;;19.88;11.93;;;;;;;;;;4989695;28;20129;-73
2022/11/08 13:25:27;;;;;;;26.88;12.18;;;;;;;;;;4969422;28;20329;-73
2022/11/08 13:27:53;;;;;;;18.10;11.45;;;;;;;;;;4992350;28;20044;-72
2022/11/08 13:30:19;;;;;;;18.70;12.05;;;;;;;;;;4993022;28;20034;-72
2022/11/08 13:32:50;;;;;;;19.45;11.52;;;;;;;;;;4990544;28;20034;-73
2022/11/08 13:35:28;;;;;;;21.00;13.40;;;;;;;;;;4993907;28;20443;-73
2022/11/08 13:38:17;;;;;;;22.10;13.75;;;;;;;;;;4987451;28;20049;-74
2022/11/08 13:40:58;;;;;;;24.02;11.70;;;;;;;;;;4980174;28;20046;-72
2022/11/08 13:43:32;;;;;;;18.85;11.23;;;;;;;;;;4984320;28;20069;-72
2022/11/08 13:46:29;;;;;;;19.77;11.93;;;;;;;;;;4984469;28;20050;-73
2022/11/08 13:49:16;;;;;;;22.30;12.95;;;;;;;;;;4988277;28;20108;-74
2022/11/08 13:51:42;;;;;;;17.33;11.90;;;;;;;;;;4988030;28;20050;-73
2022/11/08 13:54:21;;;;;;;23.65;12.77;;;;;;;;;;4986947;28;20484;-74
2022/11/08 13:56:50;;;;;;;22.92;13.70;;;;;;;;;;4987852;28;20242;-74
2022/11/08 13:59:34;;;;;;;20.98;12.80;;;;;;;;;;4985460;28;20030;-73
2022/11/08 14:02:04;;;;;;;19.75;12.93;;;;;;;;;;4981782;28;20170;-73
2022/11/08 14:04:39;;;;;;;24.60;13.35;;;;;;;;;;4983293;28;20065;-73
2022/11/08 14:07:26;;;;;;;19.73;12.93;;;;;;;;;;4989589;28;20071;-72
2022/11/08 14:10:23;;;;;;;23.52;13.77;;;;;;;;;;4988121;28;20026;-74
2022/11/08 14:13:34;;;;;;;19.70;12.55;;;;;;;;;;4990205;28;20050;-74
2022/11/08 14:16:20;;;;;;;24.88;13.90;;;;;;;;;;4989906;28;20029;-72
2022/11/08 14:18:46;;;;;;;35.67;16.23;;;;;;;;;;4991042;28;20042;-73
2022/11/08 14:21:19;;;;;;;23.15;13.45;;;;;;;;;;4979176;28;20042;-72
2022/11/08 14:23:49;;;;;;;21.27;13.32;;;;;;;;;;4978510;28;20031;-72
2022/11/08 14:26:20;;;;;;;19.33;12.60;;;;;;;;;;4980396;28;20447;-73
2022/11/08 14:28:49;;;;;;;22.70;12.75;;;;;;;;;;4981945;28;20037;-74
2022/11/08 14:31:32;;;;;;;20.60;12.95;;;;;;;;;;4977936;28;20042;-73
2022/11/08 14:33:59;;;;;;;19.13;11.93;;;;;;;;;;4977806;28;20042;-73
2022/11/08 14:36:28;;;;;;;21.92;12.82;;;;;;;;;;4975793;28;20038;-72
2022/11/08 14:39:16;;;;;;;18.50;12.65;;;;;;;;;;4978692;28;20132;-73
2022/11/08 14:41:46;;;;;;;25.92;12.98;;;;;;;;;;4978946;28;20555;-73
2022/11/08 14:44:15;;;;;;;21.10;13.63;;;;;;;;;;4960236;28;20031;-73
2022/11/08 14:46:41;;;;;;;31.75;14.88;;;;;;;;;;4977742;28;20019;-72
2022/11/08 14:49:09;;;;;;;26.35;14.27;;;;;;;;;;4977631;28;20077;-73
2022/11/08 14:51:36;;;;;;;23.95;13.00;;;;;;;;;;4978183;28;20472;-73
2022/11/08 14:54:01;;;;;;;18.02;12.07;;;;;;;;;;4987415;28;20038;-74
2022/11/08 14:56:36;;;;;;;21.77;14.38;;;;;;;;;;4994012;28;20026;-73
2022/11/08 14:59:05;;;;;;;20.42;14.18;;;;;;;;;;4989513;28;20027;-72
2022/11/08 15:01:33;;;;;;;21.90;13.48;;;;;;;;;;4989402;28;20032;-73
2022/11/08 15:04:03;;;;;;;22.98;14.50;;;;;;;;;;4982198;28;20518;-74
2022/11/08 15:06:32;;;;;;;26.92;14.90;;;;;;;;;;4962821;28;20034;-74
2022/11/08 15:09:00;;;;;;;26.90;13.95;;;;;;;;;;4979825;28;20053;-73